Terminal Aerodrome Forecast
Issued by NWS

Home | Current Version | Previous Version | Text Only | Print | Product List | Glossary On
Versions: 1 2 3 4 5 6 7 8 9 10 11 12
000
FTUS46 KMTR 081739
TAFSNS
TAF
KSNS 081739Z 0818/0918 12015G25KT 6SM BR VCSH SCT012 BKN024 OVC028
      TEMPO 0818/0820 3SM -SHRA BR BKN012
     FM082000 12015KT 6SM BR VCSH OVC010
     FM090300 11008KT P6SM VCSH BKN020
     FM091000 13006KT P6SM VCSH BKN010 OVC015=

USA.gov is the U.S. government's official web portal to all federal, state and local government web resources and services.